Fecha, hora, temperatura, viento dirección y velocidad, humedad y presión.

  • 19-03-2019 23:00:00 | 8.80°C | Nordeste |9.00 km/h | 81.00% | 1024.40 hPa
  • 19-03-2019 22:00:00 | 9.20°C | Norte |13.00 km/h | 76.00% | 1024.10 hPa
  • 19-03-2019 21:00:00 | 9.10°C | Norte |11.00 km/h | 74.00% | 1023.90 hPa
  • 19-03-2019 20:00:00 | 9.50°C | Norte |2.00 km/h | 75.00% | 1023.40 hPa
  • 19-03-2019 19:00:00 | 11.30°C | Este |12.00 km/h | 69.00% | 1023.10 hPa
  • 19-03-2019 18:00:00 | 12.50°C | Nordeste |21.00 km/h | 61.00% | 1022.40 hPa
  • 19-03-2019 17:00:00 | 13.50°C | Nordeste |24.00 km/h | 57.00% | 1022.10 hPa
  • 19-03-2019 16:00:00 | 13.40°C | Este |24.00 km/h | 61.00% | 1022.00 hPa
  • 19-03-2019 15:00:00 | 13.10°C | Este |14.00 km/h | 66.00% | 1021.90 hPa
  • 19-03-2019 14:00:00 | 12.70°C | Este |23.00 km/h | 69.00% | 1022.50 hPa
  • 19-03-2019 13:00:00 | 12.00°C | Norte |2.00 km/h | 75.00% | 1022.80 hPa
  • 19-03-2019 12:00:00 | 10.60°C | Sur |6.00 km/h | 87.00% | 1023.00 hPa
  • 19-03-2019 11:00:00 | 9.90°C | Este |11.00 km/h | 89.00% | 1023.30 hPa
  • 19-03-2019 10:00:00 | 10.00°C | Nordeste |9.00 km/h | 97.00% | 1022.90 hPa
  • 19-03-2019 09:00:00 | 9.60°C | Noroeste |14.00 km/h | 96.00% | 1022.40 hPa
  • 19-03-2019 08:00:00 | 8.80°C | Sudeste |17.00 km/h | 100.00% | 1021.50 hPa
  • 19-03-2019 07:00:00 | 7.80°C | Este |5.00 km/h | 99.00% | 1021.60 hPa
  • 19-03-2019 06:00:00 | 7.30°C | Calma |0.00 km/h | 100.00% | 1021.70 hPa
  • 19-03-2019 05:00:00 | 6.90°C | Calma |0.00 km/h | 100.00% | 1021.90 hPa
  • 19-03-2019 04:00:00 | 6.70°C | Norte |5.00 km/h | 100.00% | 1022.00 hPa
  • 19-03-2019 03:00:00 | 6.50°C | Norte |8.00 km/h | 100.00% | 1022.60 hPa
  • 19-03-2019 02:00:00 | 7.00°C | Norte |2.00 km/h | 99.00% | 1023.40 hPa
  • 19-03-2019 01:00:00 | 7.20°C | Calma |0.00 km/h | 99.00% | 1023.80 hPa
  • 19-03-2019 00:00:00 | 7.10°C | Norte |3.00 km/h | 99.00% | 1023.90 hPa
    • diseño web asturias Información sobre el estado de las mareas, altura de la marejada, temperatura del agua y otros datos de Gijón en Asturias.

      Surf Gijón